createdAt,value
2019-06-26T00:00:07.496Z,14.43
2019-06-26T00:02:35.922Z,13.22
2019-06-26T00:05:09.151Z,15.60
2019-06-26T00:07:37.595Z,10.23
2019-06-26T00:10:07.717Z,14.33
2019-06-26T00:12:36.209Z,18.33
2019-06-26T00:15:06.992Z,8.37
2019-06-26T00:17:35.708Z,11.97
2019-06-26T00:20:07.999Z,12.13
2019-06-26T00:22:36.407Z,14.47
2019-06-26T00:25:07.058Z,11.93
2019-06-26T00:27:37.516Z,11.95
2019-06-26T00:30:08.287Z,9.67
2019-06-26T00:32:36.899Z,11.27
2019-06-26T00:35:06.393Z,14.80
2019-06-26T00:37:34.974Z,10.40
2019-06-26T00:40:04.454Z,12.27
2019-06-26T00:42:32.876Z,18.73
2019-06-26T00:45:01.387Z,8.70
2019-06-26T00:47:29.805Z,15.80
2019-06-26T00:49:58.307Z,9.73
2019-06-26T00:52:26.739Z,8.95
2019-06-26T00:54:55.157Z,11.03
2019-06-26T00:57:23.683Z,12.00
2019-06-26T00:59:52.174Z,13.53
2019-06-26T01:02:20.695Z,9.53
2019-06-26T01:04:50.755Z,13.13
2019-06-26T01:07:19.187Z,13.93
2019-06-26T01:09:47.628Z,12.23
2019-06-26T01:12:16.044Z,11.83
2019-06-26T01:14:44.470Z,12.30
2019-06-26T01:17:12.879Z,13.13
2019-06-26T01:19:41.304Z,13.10
2019-06-26T01:22:09.811Z,12.13
2019-06-26T01:24:38.278Z,9.20
2019-06-26T01:27:06.769Z,11.87
2019-06-26T01:29:45.060Z,14.43
2019-06-26T01:32:13.468Z,11.27
2019-06-26T01:34:41.940Z,12.80
2019-06-26T01:37:10.356Z,15.00
2019-06-26T01:39:38.791Z,15.55
2019-06-26T01:42:07.288Z,14.90
2019-06-26T01:44:35.733Z,17.73
2019-06-26T01:47:04.225Z,12.45
2019-06-26T01:49:32.647Z,11.73
2019-06-26T01:52:02.044Z,10.37
2019-06-26T01:54:30.473Z,16.70
2019-06-26T01:56:58.996Z,11.57
2019-06-26T01:59:27.464Z,12.68
2019-06-26T02:01:55.867Z,21.07
2019-06-26T02:04:24.289Z,16.12
2019-06-26T02:06:52.725Z,17.85
2019-06-26T02:09:21.161Z,17.87
2019-06-26T02:11:49.596Z,19.47
2019-06-26T02:14:30.553Z,16.45
2019-06-26T02:16:47.223Z,17.53
2019-06-26T02:19:17.217Z,19.90
2019-06-26T02:21:45.645Z,19.70
2019-06-26T02:24:14.077Z,13.97
2019-06-26T02:26:42.485Z,18.03
2019-06-26T02:29:10.974Z,12.20
2019-06-26T02:31:39.395Z,16.83
2019-06-26T02:34:07.795Z,18.30
2019-06-26T02:36:36.222Z,20.20
2019-06-26T02:39:06.670Z,15.00
2019-06-26T02:41:35.864Z,17.13
2019-06-26T02:44:04.664Z,18.50
2019-06-26T02:46:33.085Z,15.33
2019-06-26T02:49:01.545Z,19.80
2019-06-26T02:51:29.963Z,13.47
2019-06-26T02:53:58.366Z,21.40
2019-06-26T02:56:26.777Z,16.27
2019-06-26T02:58:55.214Z,14.80
2019-06-26T03:01:23.618Z,19.30
2019-06-26T03:03:52.045Z,19.23
2019-06-26T03:06:20.533Z,15.63
2019-06-26T03:08:48.971Z,14.13
2019-06-26T03:11:17.387Z,19.90
2019-06-26T03:16:32.156Z,21.63
2019-06-26T03:19:00.606Z,16.00
2019-06-26T03:21:29.024Z,19.70
2019-06-26T03:23:57.459Z,19.47
2019-06-26T03:26:25.896Z,16.23
2019-06-26T03:28:54.313Z,17.37
2019-06-26T03:31:22.781Z,19.13
2019-06-26T03:33:51.211Z,19.70
2019-06-26T03:36:19.760Z,18.83
2019-06-26T03:38:48.209Z,17.10
2019-06-26T03:41:16.810Z,17.03
2019-06-26T03:43:45.361Z,21.70
2019-06-26T03:46:13.783Z,16.13
2019-06-26T03:48:42.218Z,13.70
2019-06-26T03:51:13.759Z,16.13
2019-06-26T03:53:40.794Z,20.33
2019-06-26T03:56:09.298Z,18.27
2019-06-26T03:58:37.728Z,20.60
2019-06-26T04:01:06.170Z,17.73
2019-06-26T04:03:34.638Z,21.03
2019-06-26T04:06:03.074Z,19.57
2019-06-26T04:08:31.598Z,20.20
2019-06-26T04:11:00.040Z,20.00
2019-06-26T04:13:28.443Z,19.35
2019-06-26T04:15:56.884Z,25.03
2019-06-26T04:18:25.349Z,17.30
2019-06-26T04:20:53.778Z,26.73
2019-06-26T04:23:22.183Z,31.10
2019-06-26T04:25:50.615Z,44.30
2019-06-26T04:28:19.040Z,34.53
2019-06-26T04:30:47.550Z,37.17
2019-06-26T04:33:15.971Z,32.00
2019-06-26T04:35:44.395Z,36.87
2019-06-26T04:38:12.834Z,39.60
2019-06-26T04:40:41.292Z,34.35
2019-06-26T04:43:09.776Z,36.43
2019-06-26T04:45:38.197Z,34.17
2019-06-26T04:48:07.418Z,38.07
2019-06-26T04:50:36.080Z,38.73
2019-06-26T04:53:04.606Z,41.47
2019-06-26T04:55:33.015Z,32.60
2019-06-26T04:58:01.455Z,41.03
2019-06-26T05:00:29.886Z,34.70
2019-06-26T05:02:58.327Z,36.30
2019-06-26T05:05:39.015Z,37.47
2019-06-26T05:07:58.609Z,38.10
2019-06-26T05:10:27.003Z,41.40
2019-06-26T05:12:55.451Z,41.57
2019-06-26T05:15:23.900Z,41.15
2019-06-26T05:17:52.445Z,32.20
2019-06-26T05:20:21.620Z,36.80
2019-06-26T05:22:50.035Z,37.40
2019-06-26T05:25:18.540Z,33.17
2019-06-26T05:27:46.947Z,34.60
2019-06-26T05:30:16.232Z,31.27
2019-06-26T05:32:44.666Z,35.70
2019-06-26T05:35:14.035Z,31.90
2019-06-26T05:37:42.434Z,32.00
2019-06-26T05:40:12.096Z,29.13
2019-06-26T05:42:40.608Z,30.43
2019-06-26T05:45:09.876Z,29.90
2019-06-26T05:47:38.375Z,28.80
2019-06-26T05:50:07.532Z,27.63
2019-06-26T05:52:35.978Z,28.42
2019-06-26T05:55:05.428Z,29.30
2019-06-26T05:57:33.922Z,26.60
2019-06-26T06:00:02.535Z,26.15
2019-06-26T06:02:32.033Z,25.10
2019-06-26T06:05:00.570Z,40.30
2019-06-26T06:07:29.037Z,32.50
2019-06-26T06:09:57.447Z,29.33
2019-06-26T06:12:25.948Z,35.10
2019-06-26T06:14:54.377Z,28.03
2019-06-26T06:17:22.930Z,26.10
2019-06-26T06:19:51.368Z,29.00
2019-06-26T06:22:19.793Z,30.33
2019-06-26T06:24:48.240Z,32.17
2019-06-26T06:27:16.790Z,28.50
2019-06-26T06:29:45.222Z,30.83
2019-06-26T06:32:13.643Z,30.70
2019-06-26T06:34:42.066Z,27.98
2019-06-26T06:37:11.389Z,31.10
2019-06-26T06:39:39.819Z,27.30
2019-06-26T06:42:08.246Z,24.47
2019-06-26T06:44:36.671Z,24.10
2019-06-26T06:47:08.757Z,28.67
2019-06-26T06:49:35.265Z,29.60
2019-06-26T06:52:03.726Z,36.68
2019-06-26T06:54:32.213Z,26.20
2019-06-26T06:57:00.671Z,22.93
2019-06-26T06:59:29.099Z,24.82
2019-06-26T07:01:57.516Z,25.82
2019-06-26T07:04:25.948Z,31.50
2019-06-26T07:06:58.585Z,21.30
2019-06-26T07:09:25.131Z,28.73
2019-06-26T07:11:53.534Z,22.43
2019-06-26T07:14:21.968Z,25.50
2019-06-26T07:16:50.397Z,27.37
2019-06-26T07:19:18.859Z,23.73
2019-06-26T07:21:47.943Z,27.60
2019-06-26T07:24:16.442Z,24.80
2019-06-26T07:26:44.890Z,21.60
2019-06-26T07:29:13.316Z,23.45
2019-06-26T07:31:41.760Z,29.60
2019-06-26T07:34:10.179Z,22.90
2019-06-26T07:36:38.609Z,29.13
2019-06-26T07:39:07.438Z,22.63
2019-06-26T07:41:35.886Z,19.00
2019-06-26T07:44:05.741Z,23.65
2019-06-26T07:46:34.157Z,22.90
2019-06-26T07:49:02.604Z,28.50
2019-06-26T07:51:31.038Z,24.37
2019-06-26T07:53:59.444Z,16.87
2019-06-26T07:56:27.878Z,18.43
2019-06-26T07:58:56.307Z,18.97
2019-06-26T08:01:24.841Z,21.30
2019-06-26T08:03:53.293Z,23.30
2019-06-26T08:06:21.737Z,17.80
2019-06-26T08:08:50.184Z,20.43
2019-06-26T08:11:18.609Z,22.30
2019-06-26T08:13:47.064Z,19.77
2019-06-26T08:16:15.505Z,17.37
2019-06-26T08:18:43.927Z,22.58
2019-06-26T08:21:13.160Z,17.80
2019-06-26T08:23:41.888Z,24.23
2019-06-26T08:26:10.298Z,17.97
2019-06-26T08:28:38.727Z,15.20
2019-06-26T08:31:07.198Z,17.33
2019-06-26T08:33:35.641Z,22.30
2019-06-26T08:36:04.091Z,18.27
2019-06-26T08:38:32.542Z,15.20
2019-06-26T08:41:00.959Z,17.73
2019-06-26T08:43:31.501Z,18.00
2019-06-26T08:45:59.568Z,23.98
2019-06-26T08:48:38.984Z,20.97
2019-06-26T08:50:58.119Z,17.10
2019-06-26T08:53:26.573Z,16.20
2019-06-26T08:55:55.016Z,23.00
2019-06-26T08:58:23.472Z,18.73
2019-06-26T09:00:51.880Z,21.62
2019-06-26T09:03:20.318Z,19.87
2019-06-26T09:05:48.935Z,18.02
2019-06-26T09:08:17.814Z,20.20
2019-06-26T09:10:46.410Z,15.43
2019-06-26T09:13:14.872Z,22.98
2019-06-26T09:15:43.252Z,13.47
2019-06-26T09:18:11.690Z,18.20
2019-06-26T09:20:41.164Z,15.88
2019-06-26T09:23:09.752Z,15.60
2019-06-26T09:25:38.222Z,15.80
2019-06-26T09:28:06.874Z,18.00
2019-06-26T09:30:35.494Z,15.63
2019-06-26T09:33:04.779Z,16.60
2019-06-26T09:35:33.226Z,16.62
2019-06-26T09:38:01.651Z,16.47
2019-06-26T09:40:32.038Z,18.23
2019-06-26T09:43:00.315Z,16.62
2019-06-26T09:45:28.779Z,16.80
2019-06-26T09:47:57.174Z,21.12
2019-06-26T09:50:25.751Z,23.38
2019-06-26T09:52:56.973Z,15.53
2019-06-26T09:55:25.375Z,14.70
2019-06-26T09:57:53.880Z,16.83
2019-06-26T10:00:23.514Z,15.58
2019-06-26T10:02:52.037Z,16.35
2019-06-26T10:05:20.665Z,16.97
2019-06-26T10:07:49.161Z,17.55
2019-06-26T10:10:17.758Z,14.90
2019-06-26T10:12:46.176Z,17.90
2019-06-26T10:15:15.543Z,15.63
2019-06-26T10:17:44.465Z,15.00
2019-06-26T10:20:13.128Z,16.17
2019-06-26T10:22:41.572Z,16.55
2019-06-26T10:25:11.628Z,18.12
2019-06-26T10:27:41.533Z,14.98
2019-06-26T10:30:10.716Z,16.48
2019-06-26T10:32:39.170Z,15.45
2019-06-26T10:35:08.252Z,18.55
2019-06-26T10:37:36.673Z,14.95
2019-06-26T10:40:06.256Z,16.40
2019-06-26T10:42:34.661Z,16.52
2019-06-26T10:45:03.570Z,13.80
2019-06-26T10:47:32.074Z,13.38
2019-06-26T10:50:00.548Z,12.82
2019-06-26T10:52:29.007Z,13.17
2019-06-26T10:54:57.519Z,14.80
2019-06-26T10:57:26.004Z,13.80
2019-06-26T10:59:55.781Z,14.00
2019-06-26T11:02:24.555Z,12.25
2019-06-26T11:04:53.105Z,11.53
2019-06-26T11:07:21.548Z,9.55
2019-06-26T11:09:50.026Z,13.85
2019-06-26T11:12:18.489Z,11.68
2019-06-26T11:14:46.901Z,11.43
2019-06-26T11:17:15.332Z,12.30
2019-06-26T11:19:44.651Z,10.38
2019-06-26T11:22:13.134Z,13.70
2019-06-26T11:24:41.635Z,12.10
2019-06-26T11:27:10.122Z,9.88
2019-06-26T11:29:38.986Z,7.08
2019-06-26T11:32:09.638Z,7.37
2019-06-26T11:34:37.553Z,9.50
2019-06-26T11:37:05.991Z,7.70
2019-06-26T11:39:34.436Z,10.13
2019-06-26T11:42:02.846Z,9.05
2019-06-26T11:44:31.454Z,9.40
2019-06-26T11:47:00.191Z,12.60
2019-06-26T11:49:28.588Z,8.85
2019-06-26T11:51:57.046Z,17.00
2019-06-26T11:54:25.692Z,8.75
2019-06-26T11:56:54.182Z,11.83
2019-06-26T11:59:22.610Z,8.95
2019-06-26T12:01:51.148Z,9.98
2019-06-26T12:04:19.604Z,10.72
2019-06-26T12:06:48.121Z,8.95
2019-06-26T12:09:16.693Z,11.30
2019-06-26T12:11:45.376Z,11.12
2019-06-26T12:14:13.820Z,7.92
2019-06-26T12:16:42.460Z,9.15
2019-06-26T12:19:10.967Z,10.68
2019-06-26T12:21:39.883Z,15.64
2019-06-26T12:24:08.322Z,11.53
2019-06-26T12:26:36.748Z,13.88
2019-06-26T12:29:05.909Z,17.32
2019-06-26T12:31:34.313Z,15.35
2019-06-26T12:34:02.763Z,13.60
2019-06-26T12:36:31.199Z,16.75
2019-06-26T12:38:59.640Z,16.23
2019-06-26T12:41:28.083Z,14.87
2019-06-26T12:43:56.517Z,11.80
2019-06-26T12:46:25.043Z,13.50
2019-06-26T12:48:53.490Z,13.60
2019-06-26T12:51:22.070Z,13.47
2019-06-26T12:53:50.484Z,13.60
2019-06-26T12:56:19.070Z,11.85
2019-06-26T12:58:47.498Z,11.97
2019-06-26T13:01:15.946Z,13.70
2019-06-26T13:03:44.381Z,13.13
2019-06-26T13:06:12.806Z,13.65
2019-06-26T13:08:41.232Z,14.53
2019-06-26T13:11:09.710Z,13.03
2019-06-26T13:13:38.286Z,13.30
2019-06-26T13:16:06.712Z,11.05
2019-06-26T13:18:35.124Z,10.38
2019-06-26T13:21:06.581Z,10.10
2019-06-26T13:23:35.085Z,13.03
2019-06-26T13:26:03.507Z,10.93
2019-06-26T13:28:31.966Z,10.63
2019-06-26T13:31:02.063Z,12.05
2019-06-26T13:33:30.510Z,16.62
2019-06-26T13:35:59.026Z,11.57
2019-06-26T13:38:27.453Z,11.07
2019-06-26T13:40:55.869Z,15.50
2019-06-26T13:43:24.309Z,11.40
2019-06-26T13:45:52.756Z,15.17
2019-06-26T13:48:21.192Z,12.05
2019-06-26T13:50:49.618Z,10.70
2019-06-26T13:53:18.053Z,13.67
2019-06-26T13:55:46.512Z,19.23
2019-06-26T13:58:15.425Z,13.93
2019-06-26T14:00:43.861Z,11.55
2019-06-26T14:03:12.280Z,12.37
2019-06-26T14:05:40.731Z,12.35
2019-06-26T14:08:09.162Z,11.80
2019-06-26T14:10:38.509Z,15.63
2019-06-26T14:13:08.110Z,11.73
2019-06-26T14:15:38.457Z,11.12
2019-06-26T14:18:09.049Z,15.32
2019-06-26T14:20:37.581Z,10.43
2019-06-26T14:23:06.677Z,12.53
2019-06-26T14:25:35.871Z,10.97
2019-06-26T14:28:05.221Z,10.78
2019-06-26T14:30:34.002Z,12.82
2019-06-26T14:33:03.018Z,12.53
2019-06-26T14:35:32.710Z,15.60
2019-06-26T14:38:01.752Z,15.35
2019-06-26T14:40:30.728Z,13.00
2019-06-26T14:43:00.041Z,12.50
2019-06-26T14:45:28.906Z,16.67
2019-06-26T14:47:58.010Z,14.85
2019-06-26T14:50:27.177Z,14.98
2019-06-26T14:52:59.215Z,16.10
2019-06-26T14:55:28.167Z,13.68
2019-06-26T14:57:57.163Z,17.42
2019-06-26T15:00:27.798Z,19.35
2019-06-26T15:02:56.490Z,14.53
2019-06-26T15:05:25.608Z,17.05
2019-06-26T15:07:54.682Z,17.32
2019-06-26T15:10:23.500Z,15.13
2019-06-26T15:12:52.460Z,15.32
2019-06-26T15:15:21.370Z,16.62
2019-06-26T15:17:49.922Z,14.17
2019-06-26T15:20:19.339Z,14.73
2019-06-26T15:22:47.903Z,18.80
2019-06-26T15:25:17.626Z,14.00
2019-06-26T15:27:46.069Z,15.20
2019-06-26T15:30:15.276Z,14.05
2019-06-26T15:32:43.831Z,17.65
2019-06-26T15:35:15.152Z,15.28
2019-06-26T15:37:44.853Z,13.50
2019-06-26T15:40:14.066Z,13.35
2019-06-26T15:42:42.595Z,14.90
2019-06-26T15:45:11.082Z,15.03
2019-06-26T15:47:39.665Z,13.32
2019-06-26T15:50:10.756Z,10.93
2019-06-26T15:52:38.993Z,13.62
2019-06-26T15:55:08.215Z,12.30
2019-06-26T15:57:36.778Z,16.82
2019-06-26T16:00:07.565Z,16.45
2019-06-26T16:02:36.022Z,15.18
2019-06-26T16:05:09.005Z,14.10
2019-06-26T16:07:37.462Z,12.88
2019-06-26T16:10:07.588Z,14.25
2019-06-26T16:12:35.986Z,13.22
2019-06-26T16:15:05.589Z,12.83
2019-06-26T16:17:51.917Z,14.87
2019-06-26T16:20:20.845Z,11.63
2019-06-26T16:22:49.446Z,16.73
2019-06-26T16:25:18.643Z,15.98
2019-06-26T16:27:47.054Z,14.95
2019-06-26T16:30:15.664Z,13.58
2019-06-26T16:32:44.676Z,12.40
2019-06-26T16:35:13.464Z,15.93
2019-06-26T16:37:42.175Z,13.70
2019-06-26T16:40:10.974Z,13.93
2019-06-26T16:42:39.746Z,23.03
2019-06-26T16:45:09.165Z,13.03
2019-06-26T16:47:37.589Z,12.70
2019-06-26T16:50:07.384Z,15.08
2019-06-26T16:52:48.589Z,11.77
2019-06-26T16:55:07.947Z,13.80
2019-06-26T16:57:36.350Z,14.07
2019-06-26T17:00:09.786Z,13.85
2019-06-26T17:02:38.594Z,15.23
2019-06-26T17:05:07.630Z,16.77
2019-06-26T17:07:36.113Z,15.50
2019-06-26T17:10:06.810Z,20.07
2019-06-26T17:12:35.301Z,19.40
2019-06-26T17:15:05.628Z,16.80
2019-06-26T17:17:34.110Z,15.10
2019-06-26T17:20:02.532Z,15.13
2019-06-26T17:22:31.419Z,21.43
2019-06-26T17:24:59.849Z,20.80
2019-06-26T17:27:28.246Z,14.75
2019-06-26T17:29:56.715Z,17.60
2019-06-26T17:32:25.199Z,15.87
2019-06-26T17:34:53.652Z,15.77
2019-06-26T17:37:22.101Z,14.40
2019-06-26T17:39:50.725Z,20.17
2019-06-26T17:42:19.554Z,25.37
2019-06-26T17:44:48.414Z,20.32
2019-06-26T17:47:17.092Z,18.23
2019-06-26T17:49:45.766Z,15.20
2019-06-26T17:52:16.955Z,17.87
2019-06-26T17:54:45.790Z,15.27
2019-06-26T17:57:14.693Z,18.53
2019-06-26T17:59:43.505Z,14.73
2019-06-26T18:02:15.171Z,19.57
2019-06-26T18:04:43.706Z,19.25
2019-06-26T18:07:12.341Z,19.87
2019-06-26T18:09:41.135Z,20.80
2019-06-26T18:12:10.036Z,18.65
2019-06-26T18:14:43.373Z,13.00
2019-06-26T18:17:21.573Z,13.37
2019-06-26T18:19:42.740Z,14.10
2019-06-26T18:22:11.442Z,19.07
2019-06-26T18:24:40.122Z,26.13
2019-06-26T18:27:08.869Z,68.83
2019-06-26T18:29:37.755Z,18.13
2019-06-26T18:32:06.585Z,12.90
2019-06-26T18:34:35.417Z,12.90
2019-06-26T18:37:04.099Z,12.87
2019-06-26T18:39:37.328Z,12.83
2019-06-26T18:42:07.971Z,18.67
2019-06-26T18:44:39.570Z,12.87
2019-06-26T18:47:08.741Z,14.60
2019-06-26T18:49:37.628Z,13.37
2019-06-26T18:52:07.813Z,17.30
2019-06-26T18:54:36.650Z,28.00
2019-06-26T18:57:05.221Z,15.23
2019-06-26T18:59:33.876Z,9.93
2019-06-26T19:02:02.522Z,13.57
2019-06-26T19:04:31.362Z,22.83
2019-06-26T19:07:00.049Z,13.00
2019-06-26T19:09:28.785Z,13.23
2019-06-26T19:11:58.647Z,16.15
2019-06-26T19:14:27.376Z,15.87
2019-06-26T19:16:56.126Z,13.40
2019-06-26T19:19:25.790Z,13.63
2019-06-26T19:21:54.565Z,13.87
2019-06-26T19:24:23.279Z,12.93
2019-06-26T19:26:52.036Z,15.17
2019-06-26T19:29:20.650Z,15.65
2019-06-26T19:31:50.330Z,14.50
2019-06-26T19:34:18.943Z,18.20
2019-06-26T19:36:50.458Z,15.33
2019-06-26T19:39:20.928Z,13.05
2019-06-26T19:41:49.417Z,17.63
2019-06-26T19:44:18.045Z,13.50
2019-06-26T19:46:47.549Z,13.43
2019-06-26T19:49:17.160Z,18.03
2019-06-26T19:51:45.813Z,16.65
2019-06-26T19:54:26.683Z,15.60
2019-06-26T19:56:44.460Z,15.00
2019-06-26T19:59:12.908Z,11.43
2019-06-26T20:01:41.334Z,13.23
2019-06-26T20:04:09.905Z,14.80
2019-06-26T20:06:38.382Z,14.07
2019-06-26T20:09:07.410Z,11.28
2019-06-26T20:11:36.485Z,13.18
2019-06-26T20:14:05.007Z,13.57
2019-06-26T20:16:35.777Z,18.23
2019-06-26T20:19:04.735Z,13.97
2019-06-26T20:21:33.340Z,17.33
2019-06-26T20:24:01.777Z,12.13
2019-06-26T20:26:30.209Z,12.37
2019-06-26T20:28:58.609Z,15.77
2019-06-26T20:31:27.054Z,16.40
2019-06-26T20:33:55.489Z,12.90
2019-06-26T20:36:23.934Z,13.37
2019-06-26T20:38:52.379Z,13.67
2019-06-26T20:41:20.869Z,13.73
2019-06-26T20:43:49.296Z,9.97
2019-06-26T20:46:17.723Z,18.40
2019-06-26T20:48:46.183Z,15.83
2019-06-26T20:51:14.696Z,13.80
2019-06-26T20:53:43.138Z,12.85
2019-06-26T20:56:11.605Z,12.07
2019-06-26T20:58:41.542Z,11.00
2019-06-26T21:01:09.958Z,19.57
2019-06-26T21:03:38.384Z,9.80
2019-06-26T21:06:06.833Z,17.83
2019-06-26T21:08:35.303Z,15.60
2019-06-26T21:11:03.836Z,12.83
2019-06-26T21:13:32.279Z,10.40
2019-06-26T21:16:01.295Z,10.40
2019-06-26T21:18:29.843Z,11.23
2019-06-26T21:20:58.313Z,13.50
2019-06-26T21:23:26.774Z,14.70
2019-06-26T21:25:55.226Z,12.88
2019-06-26T21:28:23.635Z,9.43
2019-06-26T21:30:52.114Z,12.90
2019-06-26T21:33:20.545Z,17.03
2019-06-26T21:35:49.149Z,12.63
2019-06-26T21:38:17.709Z,11.87
2019-06-26T21:40:46.127Z,9.67
2019-06-26T21:43:14.655Z,20.75
2019-06-26T21:45:43.119Z,11.88
2019-06-26T21:48:11.595Z,12.20
2019-06-26T21:50:40.054Z,17.87
2019-06-26T21:53:08.439Z,14.13
2019-06-26T21:55:36.852Z,11.73
2019-06-26T21:58:05.255Z,16.60
2019-06-26T22:00:34.525Z,10.50
2019-06-26T22:03:03.127Z,16.33
2019-06-26T22:05:31.568Z,17.20
2019-06-26T22:08:00.854Z,10.03
2019-06-26T22:10:29.640Z,10.68
2019-06-26T22:12:58.117Z,10.93
2019-06-26T22:15:26.694Z,16.20
2019-06-26T22:17:55.161Z,8.57
2019-06-26T22:20:23.675Z,8.07
2019-06-26T22:22:52.885Z,8.57
2019-06-26T22:25:21.402Z,8.97
2019-06-26T22:27:49.885Z,12.23
2019-06-26T22:30:18.521Z,8.50
2019-06-26T22:32:47.821Z,11.57
2019-06-26T22:35:16.515Z,8.70
2019-06-26T22:37:44.942Z,6.70
2019-06-26T22:40:14.299Z,8.47
2019-06-26T22:42:42.742Z,10.87
2019-06-26T22:45:11.695Z,13.58
2019-06-26T22:47:40.132Z,12.10
2019-06-26T22:50:09.186Z,12.17
2019-06-26T22:52:37.778Z,9.90
2019-06-26T22:55:07.633Z,8.27
2019-06-26T22:57:36.058Z,8.00
2019-06-26T23:00:10.369Z,11.73
2019-06-26T23:02:38.869Z,9.77
2019-06-26T23:05:07.643Z,11.97
2019-06-26T23:07:36.177Z,8.60
2019-06-26T23:10:06.634Z,6.07
2019-06-26T23:12:35.149Z,8.13
2019-06-26T23:15:05.525Z,7.30
2019-06-26T23:17:33.945Z,5.43
2019-06-26T23:20:02.435Z,4.37
2019-06-26T23:22:30.858Z,5.60
2019-06-26T23:24:59.259Z,6.80
2019-06-26T23:27:27.657Z,7.03
2019-06-26T23:29:56.152Z,6.60
2019-06-26T23:32:24.602Z,7.42
2019-06-26T23:34:53.146Z,6.13
2019-06-26T23:37:21.559Z,9.60
2019-06-26T23:39:50.003Z,8.20
2019-06-26T23:42:18.448Z,8.50
2019-06-26T23:44:47.936Z,7.92
2019-06-26T23:47:16.358Z,5.53
2019-06-26T23:49:44.770Z,4.70
2019-06-26T23:52:13.223Z,6.15
2019-06-26T23:54:41.658Z,6.80
2019-06-26T23:57:10.176Z,9.10
2019-06-26T23:59:38.599Z,7.80
